Time;durP1;ratioP1;P1;durP2;ratioP2;P2;SDS_P1;SDS_P2;PMS_P1;PMS_P2;Temp;Humidity;BMP_temperature;BMP_pressure;BME280_temperature;BME280_humidity;BME280_pressure;Samples;Min_cycle;Max_cycle;Signal;HPM_P1;HPM_P2
2022/06/27 00:00:17;;;;;;;7.90;5.40;;;22.00;99.90;;;;;;4911757;29;20031;-79
2022/06/27 00:02:43;;;;;;;13.05;5.40;;;22.00;99.90;;;;;;4926384;29;20501;-78
2022/06/27 00:05:12;;;;;;;9.00;5.13;;;21.90;99.90;;;;;;4910538;29;20040;-81
2022/06/27 00:07:39;;;;;;;12.98;5.20;;;21.90;99.90;;;;;;4966532;23;20048;-82
2022/06/27 00:10:06;;;;;;;8.77;4.78;;;21.90;99.90;;;;;;4965776;29;20094;-87
2022/06/27 00:12:32;;;;;;;6.80;5.32;;;21.90;99.90;;;;;;4953141;29;20028;-85
2022/06/27 00:14:58;;;;;;;8.10;5.10;;;21.90;99.90;;;;;;4953365;29;20024;-84
2022/06/27 00:17:27;;;;;;;13.07;5.75;;;21.90;99.90;;;;;;4953523;29;20051;-84
2022/06/27 00:19:53;;;;;;;9.82;4.72;;;21.90;99.90;;;;;;4958006;29;20020;-84
2022/06/27 00:22:19;;;;;;;9.80;5.38;;;21.90;99.90;;;;;;4957859;29;20335;-83
2022/06/27 00:24:45;;;;;;;10.52;5.00;;;21.80;99.90;;;;;;4958174;29;20016;-82
2022/06/27 00:27:11;;;;;;;11.57;5.40;;;21.80;99.90;;;;;;4942804;29;20036;-85
2022/06/27 00:29:37;;;;;;;7.82;5.80;;;21.80;99.90;;;;;;4950846;29;20027;-86
2022/06/27 00:32:03;;;;;;;6.57;4.70;;;21.80;99.90;;;;;;4950754;29;20241;-85
2022/06/27 00:34:29;;;;;;;9.00;5.43;;;21.70;99.90;;;;;;4951089;29;20023;-85
2022/06/27 00:36:55;;;;;;;11.95;5.88;;;21.70;99.90;;;;;;4952077;29;20156;-85
2022/06/27 00:39:21;;;;;;;10.32;5.53;;;21.70;99.90;;;;;;4951144;29;20034;-83
2022/06/27 00:41:47;;;;;;;7.10;4.68;;;21.70;99.90;;;;;;4952491;29;20043;-85
2022/06/27 00:44:36;;;;;;;8.13;5.40;;;21.60;99.90;;;;;;4952040;29;20031;-84
2022/06/27 00:47:04;;;;;;;7.28;5.40;;;21.60;99.90;;;;;;4951848;29;20036;-85
2022/06/27 00:49:30;;;;;;;9.63;4.95;;;21.60;99.90;;;;;;4951068;29;20039;-83
2022/06/27 00:51:56;;;;;;;10.43;5.25;;;21.50;99.90;;;;;;4952873;29;20039;-83
2022/06/27 00:54:23;;;;;;;8.82;5.72;;;21.50;99.90;;;;;;4952361;29;20036;-85
2022/06/27 00:56:51;;;;;;;8.38;5.35;;;21.40;99.90;;;;;;4952220;29;20043;-85
2022/06/27 00:59:17;;;;;;;16.10;5.80;;;21.30;99.90;;;;;;4934743;29;20020;-85
2022/06/27 01:01:43;;;;;;;5.47;4.93;;;21.30;99.90;;;;;;4950150;29;20524;-85
2022/06/27 01:04:09;;;;;;;8.05;5.00;;;21.40;99.90;;;;;;4954739;29;20035;-83
2022/06/27 01:06:35;;;;;;;11.38;5.80;;;21.40;99.90;;;;;;4955175;29;20071;-84
2022/06/27 01:09:01;;;;;;;8.80;5.13;;;21.50;99.90;;;;;;4956189;29;20032;-82
2022/06/27 01:11:27;;;;;;;11.77;5.50;;;21.40;99.90;;;;;;4955671;29;20087;-83
2022/06/27 01:13:53;;;;;;;11.07;5.55;;;21.40;99.90;;;;;;4955352;29;20039;-83
2022/06/27 01:16:19;;;;;;;9.73;5.32;;;21.40;99.90;;;;;;4956544;29;20032;-83
2022/06/27 01:18:45;;;;;;;7.68;5.60;;;21.30;99.90;;;;;;4955691;29;20036;-83
2022/06/27 01:21:26;;;;;;;7.68;5.50;;;21.30;99.90;;;;;;4953671;29;20055;-84
2022/06/27 01:23:55;;;;;;;9.82;5.15;;;21.20;99.90;;;;;;4953594;29;20035;-84
2022/06/27 01:26:24;;;;;;;7.07;5.20;;;21.20;99.90;;;;;;4953868;29;20023;-83
2022/06/27 01:28:53;;;;;;;6.80;5.10;;;21.20;99.90;;;;;;4949773;29;20494;-83
2022/06/27 01:31:22;;;;;;;5.97;4.75;;;21.10;99.90;;;;;;4949281;29;20038;-84
2022/06/27 01:33:48;;;;;;;10.65;5.22;;;21.10;99.90;;;;;;4948588;29;20020;-83
2022/06/27 01:38:59;;;;;;;10.25;4.70;;;21.00;99.90;;;;;;4947746;29;20036;-82
2022/06/27 01:41:26;;;;;;;11.52;5.43;;;21.00;99.90;;;;;;4950693;29;20428;-81
2022/06/27 01:43:52;;;;;;;7.78;4.88;;;21.00;99.90;;;;;;4958403;28;20173;-86
2022/06/27 01:46:18;;;;;;;8.57;5.07;;;21.00;99.90;;;;;;4947087;29;20051;-83
2022/06/27 01:48:44;;;;;;;8.20;4.60;;;20.90;99.90;;;;;;4943487;29;20035;-83
2022/06/27 01:51:10;;;;;;;6.00;4.72;;;20.90;99.90;;;;;;4926038;29;20034;-85
2022/06/27 01:53:37;;;;;;;7.53;5.00;;;20.90;99.90;;;;;;4943989;29;20500;-83
2022/06/27 01:56:04;;;;;;;10.52;4.80;;;20.90;99.90;;;;;;4925409;29;20055;-82
2022/06/27 01:58:34;;;;;;;6.80;4.80;;;20.90;99.90;;;;;;4943693;29;20020;-85
2022/06/27 02:01:01;;;;;;;10.20;4.82;;;20.90;99.90;;;;;;4948858;29;20027;-83
2022/06/27 02:03:26;;;;;;;8.15;5.45;;;20.80;99.90;;;;;;4950982;29;20032;-83
2022/06/27 02:05:53;;;;;;;8.63;4.55;;;20.80;99.90;;;;;;4953698;29;20047;-84
2022/06/27 02:08:22;;;;;;;8.15;4.93;;;20.70;99.90;;;;;;4935818;28;20020;-82
2022/06/27 02:10:49;;;;;;;6.18;4.35;;;20.70;99.90;;;;;;4959459;28;20043;-83
2022/06/27 02:13:15;;;;;;;8.45;4.97;;;20.70;99.90;;;;;;4959593;28;20087;-82
2022/06/27 02:16:08;;;;;;;9.95;4.90;;;20.60;99.90;;;;;;4959312;28;20050;-81
2022/06/27 02:18:36;;;;;;;7.15;4.82;;;20.60;99.90;;;;;;4943474;28;20090;-82
2022/06/27 02:21:02;;;;;;;9.95;4.72;;;20.50;99.90;;;;;;4959358;28;20088;-80
2022/06/27 02:23:28;;;;;;;10.55;4.70;;;20.50;99.90;;;;;;4959013;28;20091;-80
2022/06/27 02:25:56;;;;;;;8.25;4.63;;;20.50;99.90;;;;;;4950816;28;20431;-82
2022/06/27 02:28:25;;;;;;;7.88;4.30;;;20.60;99.90;;;;;;4947176;29;20036;-83
2022/06/27 02:30:53;;;;;;;9.05;4.35;;;20.60;99.90;;;;;;4948864;29;20092;-83
2022/06/27 02:33:19;;;;;;;6.05;4.80;;;20.60;99.90;;;;;;4951253;29;20052;-84
2022/06/27 02:35:46;;;;;;;6.40;4.75;;;20.50;99.90;;;;;;4955656;29;20068;-81
2022/06/27 02:38:14;;;;;;;6.10;5.10;;;20.40;99.90;;;;;;4957077;29;20035;-82
2022/06/27 02:40:42;;;;;;;5.28;4.15;;;20.40;99.90;;;;;;4955311;29;20633;-84
2022/06/27 02:43:09;;;;;;;6.75;4.75;;;20.40;99.90;;;;;;4950870;29;20043;-83
2022/06/27 02:45:38;;;;;;;5.65;5.05;;;20.40;99.90;;;;;;4933415;29;20016;-82
2022/06/27 02:48:05;;;;;;;7.05;4.53;;;20.40;99.90;;;;;;4953445;29;20035;-83
2022/06/27 02:50:33;;;;;;;8.27;4.65;;;20.40;99.90;;;;;;4952694;29;20101;-83
2022/06/27 02:53:05;;;;;;;5.15;4.50;;;20.50;99.90;;;;;;4948200;29;20036;-85
2022/06/27 02:55:39;;;;;;;14.07;4.95;;;20.50;99.90;;;;;;4949204;29;20059;-85
2022/06/27 02:58:37;;;;;;;5.17;4.43;;;20.50;99.90;;;;;;4947179;29;20042;-84
2022/06/27 03:01:06;;;;;;;5.18;4.15;;;20.50;99.90;;;;;;4905993;29;20100;-85
2022/06/27 03:03:33;;;;;;;10.43;4.40;;;20.50;99.90;;;;;;4946136;29;20034;-85
2022/06/27 03:06:02;;;;;;;5.05;4.18;;;20.60;99.90;;;;;;4947228;29;20063;-84
2022/06/27 03:08:40;;;;;;;13.05;4.55;;;20.70;99.90;;;;;;4947435;29;20035;-84
2022/06/27 03:11:11;;;;;;;10.13;4.80;;;20.70;99.90;;;;;;4947523;29;20038;-84
2022/06/27 03:13:37;;;;;;;6.95;4.43;;;20.70;99.90;;;;;;4949530;29;20036;-83
2022/06/27 03:16:04;;;;;;;5.85;3.83;;;20.70;99.90;;;;;;4949424;29;20044;-82
2022/06/27 03:18:30;;;;;;;7.57;4.45;;;20.70;99.90;;;;;;4948690;29;20024;-84
2022/06/27 03:21:08;;;;;;;6.75;4.40;;;20.70;99.90;;;;;;4950010;29;20028;-82
2022/06/27 03:23:39;;;;;;;6.18;3.88;;;20.70;99.90;;;;;;4950559;29;20032;-82
2022/06/27 03:26:05;;;;;;;7.68;4.38;;;20.60;99.90;;;;;;4947273;29;20099;-84
2022/06/27 03:28:34;;;;;;;6.55;4.22;;;20.60;99.90;;;;;;4935407;29;20036;-83
2022/06/27 03:31:02;;;;;;;7.55;4.85;;;20.60;99.90;;;;;;4958123;28;20030;-82
2022/06/27 03:33:32;;;;;;;8.65;4.85;;;20.60;99.90;;;;;;4959249;28;20091;-82
2022/06/27 03:36:18;;;;;;;8.38;4.45;;;20.50;99.90;;;;;;4959477;29;20032;-82
2022/06/27 03:38:44;;;;;;;9.63;4.88;;;20.50;99.90;;;;;;4958204;28;20039;-81
2022/06/27 03:41:09;;;;;;;11.82;4.90;;;20.50;99.90;;;;;;4962351;28;20107;-80
2022/06/27 03:43:35;;;;;;;7.45;4.25;;;20.50;99.90;;;;;;4961740;28;20031;-82
2022/06/27 03:46:02;;;;;;;8.98;4.70;;;20.60;99.90;;;;;;4945708;28;20036;-81
2022/06/27 03:51:38;;;;;;;7.18;5.50;;;20.60;99.90;;;;;;4943241;29;20385;-84
2022/06/27 03:54:04;;;;;;;9.95;5.30;;;20.70;99.90;;;;;;4958785;29;20039;-84
2022/06/27 03:56:30;;;;;;;8.23;4.85;;;20.70;99.90;;;;;;4950685;29;20023;-85
2022/06/27 03:58:56;;;;;;;9.55;4.95;;;20.80;99.90;;;;;;4934087;29;20048;-87
2022/06/27 04:01:22;;;;;;;8.05;5.28;;;20.80;99.90;;;;;;4952772;29;20124;-81
2022/06/27 04:03:58;;;;;;;12.93;4.68;;;20.90;99.90;;;;;;4960145;28;20031;-84
2022/06/27 04:06:27;;;;;;;9.68;4.90;;;20.90;99.90;;;;;;4957220;28;20425;-84
2022/06/27 04:08:53;;;;;;;6.20;4.70;;;21.00;99.90;;;;;;4933469;29;20024;-84
2022/06/27 04:11:19;;;;;;;7.30;4.75;;;21.10;99.90;;;;;;4949731;29;20035;-84
2022/06/27 04:13:49;;;;;;;5.45;3.63;;;21.20;99.90;;;;;;4949514;29;20032;-87
2022/06/27 04:16:18;;;;;;;7.75;4.10;;;21.30;99.90;;;;;;4949717;29;20035;-83
2022/06/27 04:19:02;;;;;;;5.25;3.75;;;21.40;99.90;;;;;;4952222;29;20040;-83
2022/06/27 04:21:51;;;;;;;10.40;4.05;;;21.60;99.90;;;;;;4951622;29;20052;-84
2022/06/27 04:24:37;;;;;;;6.25;4.00;;;21.70;99.90;;;;;;4959311;28;20030;-84
2022/06/27 04:27:06;;;;;;;8.40;4.18;;;21.90;99.90;;;;;;4948700;29;20322;-83
2022/06/27 04:29:32;;;;;;;8.15;4.22;;;22.00;99.90;;;;;;4948733;29;20020;-84
2022/06/27 04:31:58;;;;;;;8.00;3.80;;;22.10;99.90;;;;;;4949127;29;20032;-84
2022/06/27 04:34:24;;;;;;;5.75;4.13;;;22.10;99.90;;;;;;4947564;29;20023;-83
2022/06/27 04:36:50;;;;;;;6.30;4.15;;;22.20;99.90;;;;;;4952357;29;20031;-84
2022/06/27 04:39:17;;;;;;;6.72;3.90;;;22.20;99.90;;;;;;4958039;28;20004;-83
2022/06/27 04:41:53;;;;;;;8.30;3.55;;;22.30;99.90;;;;;;4959555;28;20067;-85
2022/06/27 04:44:21;;;;;;;6.20;3.75;;;22.40;99.90;;;;;;4954334;29;20019;-83
2022/06/27 04:46:48;;;;;;;4.75;3.80;;;22.50;99.90;;;;;;4955336;29;20008;-83
2022/06/27 04:49:25;;;;;;;11.30;4.10;;;22.60;99.90;;;;;;4954698;29;20024;-83
2022/06/27 04:51:51;;;;;;;9.10;4.68;;;22.70;99.90;;;;;;4952881;29;20032;-82
2022/06/27 04:54:18;;;;;;;7.18;4.00;;;22.90;99.90;;;;;;4952906;29;20024;-85
2022/06/27 04:56:45;;;;;;;12.85;4.45;;;23.50;99.90;;;;;;4951515;29;20031;-85
2022/06/27 04:59:13;;;;;;;7.43;4.35;;;24.20;99.90;;;;;;4950901;29;20265;-85
2022/06/27 05:01:41;;;;;;;13.25;4.20;;;24.50;99.90;;;;;;4936700;29;20060;-82
2022/06/27 05:04:11;;;;;;;9.98;4.15;;;24.70;99.90;;;;;;4951627;29;20028;-84
2022/06/27 05:06:41;;;;;;;10.95;4.47;;;24.60;99.90;;;;;;4952859;28;20039;-82
2022/06/27 05:09:08;;;;;;;10.68;3.53;;;24.50;99.90;;;;;;4952468;29;20036;-86
2022/06/27 05:11:34;;;;;;;8.13;3.65;;;24.40;99.90;;;;;;4952707;29;20032;-85
2022/06/27 05:14:00;;;;;;;7.85;4.00;;;24.40;99.90;;;;;;4952518;29;20035;-85
2022/06/27 05:16:38;;;;;;;11.82;4.00;;;24.30;99.90;;;;;;4952735;29;20028;-87
2022/06/27 05:19:09;;;;;;;9.73;4.18;;;24.30;99.90;;;;;;4956415;28;20032;-85
2022/06/27 05:21:35;;;;;;;6.93;3.55;;;24.20;99.90;;;;;;4953830;29;20032;-86
2022/06/27 05:24:03;;;;;;;6.38;3.45;;;24.20;99.90;;;;;;4945173;29;20031;-86
2022/06/27 05:26:29;;;;;;;11.27;3.90;;;24.30;99.90;;;;;;4945357;29;20080;-86
2022/06/27 05:28:55;;;;;;;9.27;3.85;;;24.30;99.90;;;;;;4952387;29;20027;-88
2022/06/27 05:31:22;;;;;;;5.95;3.80;;;24.40;99.90;;;;;;4954958;29;20127;-85
2022/06/27 05:33:48;;;;;;;8.02;4.15;;;24.50;99.90;;;;;;4954653;29;20533;-87
2022/06/27 05:36:15;;;;;;;5.63;3.85;;;24.60;99.90;;;;;;4954531;28;20056;-85
2022/06/27 05:38:41;;;;;;;13.13;3.67;;;24.60;99.90;;;;;;4955840;29;20043;-86
2022/06/27 05:41:07;;;;;;;10.13;3.40;;;24.70;99.90;;;;;;4955909;29;20034;-86
2022/06/27 05:43:34;;;;;;;8.43;3.58;;;24.70;99.90;;;;;;4952429;29;20031;-86
2022/06/27 05:46:00;;;;;;;7.68;3.22;;;24.70;99.90;;;;;;4935415;29;20050;-84
2022/06/27 05:48:26;;;;;;;4.78;3.40;;;24.80;99.90;;;;;;4935316;29;20043;-88
2022/06/27 05:51:17;;;;;;;5.45;3.47;;;24.90;99.90;;;;;;4936810;29;20052;-88
2022/06/27 05:53:45;;;;;;;8.18;3.47;;;25.00;99.90;;;;;;4935495;29;20051;-88
2022/06/27 05:56:11;;;;;;;6.03;3.25;;;25.10;99.90;;;;;;4934580;29;20034;-85
2022/06/27 05:58:38;;;;;;;5.65;3.53;;;25.10;99.90;;;;;;4933902;29;20036;-86
2022/06/27 06:01:06;;;;;;;6.35;3.58;;;25.10;99.90;;;;;;4930918;29;20121;-87
2022/06/27 06:03:34;;;;;;;5.63;3.67;;;25.20;99.90;;;;;;4933463;29;20028;-86
2022/06/27 06:06:02;;;;;;;9.60;3.95;;;25.20;99.90;;;;;;4915566;29;20032;-85
2022/06/27 06:08:28;;;;;;;8.05;4.15;;;25.30;99.90;;;;;;4961728;23;20056;-80
2022/06/27 06:10:55;;;;;;;13.40;4.22;;;25.30;99.90;;;;;;4945667;29;20084;-80
2022/06/27 06:13:23;;;;;;;17.38;5.25;;;25.50;99.90;;;;;;4945876;29;20042;-81
2022/06/27 06:15:51;;;;;;;14.75;5.03;;;25.40;99.90;;;;;;4943756;29;20028;-80
2022/06/27 06:18:18;;;;;;;17.02;3.95;;;25.40;99.90;;;;;;4924551;29;20095;-81
2022/06/27 06:20:47;;;;;;;12.10;4.30;;;25.50;99.90;;;;;;4923707;29;20031;-82
2022/06/27 06:23:12;;;;;;;10.35;4.88;;;25.50;99.90;;;;;;4925522;29;20066;-81
2022/06/27 06:25:39;;;;;;;14.32;4.38;;;25.60;99.90;;;;;;4923149;29;20031;-81
2022/06/27 06:28:06;;;;;;;12.38;4.78;;;25.70;99.90;;;;;;4920853;29;20080;-80
2022/06/27 06:30:33;;;;;;;12.50;4.78;;;25.80;99.90;;;;;;4936274;29;20103;-79
2022/06/27 06:33:04;;;;;;;10.00;4.45;;;25.80;99.90;;;;;;4920550;29;20433;-79
2022/06/27 06:35:33;;;;;;;9.70;4.63;;;25.90;99.90;;;;;;4937304;29;20028;-79
2022/06/27 06:38:00;;;;;;;7.15;4.55;;;26.00;99.90;;;;;;4918713;29;20034;-80
2022/06/27 06:40:27;;;;;;;12.95;4.75;;;26.10;99.90;;;;;;4949221;29;20514;-79
2022/06/27 06:42:54;;;;;;;10.63;4.88;;;26.20;99.90;;;;;;4913611;29;20087;-79
2022/06/27 06:45:34;;;;;;;11.15;4.57;;;26.20;99.90;;;;;;4922012;29;20036;-81
2022/06/27 06:48:14;;;;;;;18.55;6.15;;;26.20;99.90;;;;;;4940660;29;20032;-82
2022/06/27 06:50:42;;;;;;;11.35;4.90;;;26.20;99.90;;;;;;4917818;29;20036;-82
2022/06/27 06:53:07;;;;;;;9.10;4.43;;;26.30;99.90;;;;;;4913816;29;20032;-83
2022/06/27 06:55:33;;;;;;;11.93;4.50;;;26.40;99.90;;;;;;4912153;29;20032;-82
2022/06/27 06:57:59;;;;;;;11.35;4.88;;;26.50;99.90;;;;;;4913883;29;20035;-84
2022/06/27 07:00:25;;;;;;;7.65;4.53;;;26.60;99.90;;;;;;4911554;29;20031;-83
2022/06/27 07:02:53;;;;;;;12.40;4.65;;;26.60;99.90;;;;;;4911678;29;20469;-84
2022/06/27 07:05:20;;;;;;;13.73;4.53;;;26.70;99.90;;;;;;4922337;29;20123;-84
2022/06/27 07:07:50;;;;;;;13.75;5.25;;;26.70;99.90;;;;;;4938734;29;20042;-85
2022/06/27 07:10:18;;;;;;;10.02;4.30;;;26.80;99.90;;;;;;4929135;29;20036;-86
2022/06/27 07:12:44;;;;;;;13.68;4.35;;;27.00;99.90;;;;;;4942428;29;20039;-85
2022/06/27 07:15:11;;;;;;;7.05;3.63;;;27.20;99.90;;;;;;4927846;29;20028;-87
2022/06/27 07:17:45;;;;;;;10.80;4.28;;;27.30;99.90;;;;;;4942050;29;20076;-84
2022/06/27 07:20:13;;;;;;;12.15;3.97;;;27.30;99.90;;;;;;4928545;29;20150;-87
2022/06/27 07:22:40;;;;;;;10.25;4.13;;;27.30;99.90;;;;;;4926781;29;20036;-87
2022/06/27 07:25:07;;;;;;;18.75;5.82;;;27.40;99.90;;;;;;4928181;29;20503;-86
2022/06/27 07:27:34;;;;;;;10.63;4.00;;;27.40;99.90;;;;;;4932431;29;20032;-86
2022/06/27 07:30:02;;;;;;;8.23;4.43;;;27.50;99.90;;;;;;4933635;29;20032;-85
2022/06/27 07:32:29;;;;;;;10.90;4.03;;;27.60;99.90;;;;;;4947941;29;20029;-86
2022/06/27 07:34:57;;;;;;;14.13;4.05;;;27.60;99.90;;;;;;4936224;29;20030;-87
2022/06/27 07:37:23;;;;;;;9.05;3.60;;;27.70;99.90;;;;;;4938341;29;20027;-86
2022/06/27 07:39:49;;;;;;;13.90;3.65;;;27.70;99.90;;;;;;4935125;29;20028;-85
2022/06/27 07:42:15;;;;;;;12.70;4.28;;;27.70;99.90;;;;;;4958052;28;20031;-84
2022/06/27 07:44:42;;;;;;;7.55;4.13;;;27.70;99.90;;;;;;4938810;29;20044;-83
2022/06/27 07:47:08;;;;;;;7.82;3.53;;;27.80;99.90;;;;;;4940111;29;20093;-85
2022/06/27 07:49:34;;;;;;;8.07;3.85;;;27.70;99.90;;;;;;4929650;29;20044;-83
2022/06/27 07:52:00;;;;;;;13.00;4.63;;;27.80;99.90;;;;;;4917781;29;20044;-86
2022/06/27 07:54:27;;;;;;;14.65;4.30;;;27.90;99.90;;;;;;4908126;29;20025;-86
2022/06/27 07:56:53;;;;;;;14.68;4.18;;;28.00;99.90;;;;;;4907679;29;20084;-84
2022/06/27 07:59:20;;;;;;;8.27;3.67;;;28.00;99.90;;;;;;4908159;29;20036;-84
2022/06/27 08:01:46;;;;;;;9.25;3.60;;;28.10;99.90;;;;;;4908541;29;20028;-86
2022/06/27 08:04:14;;;;;;;14.02;4.00;;;28.20;99.90;;;;;;4907363;29;20088;-86
2022/06/27 08:06:42;;;;;;;11.20;4.30;;;28.30;99.90;;;;;;4908988;29;20021;-85
2022/06/27 08:09:08;;;;;;;14.48;4.30;;;28.50;99.90;;;;;;4906410;29;20036;-85
2022/06/27 08:11:38;;;;;;;11.15;3.58;;;28.60;99.90;;;;;;4908354;29;20033;-85
2022/06/27 08:14:07;;;;;;;9.13;3.70;;;28.70;99.90;;;;;;4908493;29;20093;-85
2022/06/27 08:16:35;;;;;;;8.07;3.63;;;28.60;99.90;;;;;;4910399;29;20226;-85
2022/06/27 08:19:02;;;;;;;12.15;3.55;;;28.70;99.90;;;;;;4912381;29;20061;-83
2022/06/27 08:21:28;;;;;;;14.50;3.50;;;28.70;99.90;;;;;;4918376;29;20061;-82
2022/06/27 08:23:58;;;;;;;8.52;3.47;;;28.80;99.90;;;;;;4923660;29;20036;-82
2022/06/27 08:26:25;;;;;;;11.88;3.13;;;28.90;99.90;;;;;;4922488;29;20065;-81
2022/06/27 08:28:52;;;;;;;9.00;3.25;;;28.90;99.90;;;;;;4921655;29;20020;-86
2022/06/27 08:31:18;;;;;;;6.45;3.25;;;28.90;99.90;;;;;;4912671;29;20032;-83
2022/06/27 08:33:46;;;;;;;10.77;2.90;;;28.90;99.90;;;;;;4915583;29;20069;-83
2022/06/27 08:36:14;;;;;;;11.50;4.13;;;28.90;99.90;;;;;;4915515;29;20107;-82
2022/06/27 08:38:45;;;;;;;10.32;3.78;;;29.00;99.90;;;;;;4916064;29;20025;-82
2022/06/27 08:41:12;;;;;;;10.48;4.40;;;29.10;99.90;;;;;;4915956;29;20478;-83
2022/06/27 08:43:38;;;;;;;7.57;3.75;;;29.20;99.90;;;;;;4932490;29;20031;-82
2022/06/27 08:46:06;;;;;;;10.88;3.25;;;29.30;99.90;;;;;;4917523;29;20060;-81
2022/06/27 08:48:34;;;;;;;7.72;3.88;;;29.20;99.80;;;;;;4916700;29;20028;-83
2022/06/27 08:51:04;;;;;;;7.03;3.58;;;29.20;99.90;;;;;;4932962;29;20044;-82
2022/06/27 08:53:32;;;;;;;12.63;3.83;;;29.30;99.90;;;;;;4918358;29;20077;-82
2022/06/27 08:55:59;;;;;;;7.00;3.65;;;29.40;99.90;;;;;;4917706;29;20024;-83
2022/06/27 08:58:27;;;;;;;6.97;3.53;;;29.50;99.70;;;;;;4915854;29;20025;-82
2022/06/27 09:00:53;;;;;;;12.13;3.40;;;29.50;99.90;;;;;;4916385;29;20031;-85
2022/06/27 09:03:21;;;;;;;13.07;3.55;;;29.50;99.60;;;;;;4911247;29;20044;-84
2022/06/27 09:06:01;;;;;;;14.80;3.50;;;29.60;99.70;;;;;;4909807;29;20032;-82
2022/06/27 09:08:36;;;;;;;12.80;4.50;;;29.60;99.30;;;;;;4912256;29;20501;-81
2022/06/27 09:11:03;;;;;;;6.55;3.17;;;29.80;99.30;;;;;;4916925;29;20024;-82
2022/06/27 09:13:30;;;;;;;12.15;3.53;;;29.80;99.10;;;;;;4913046;29;20064;-84
2022/06/27 09:16:01;;;;;;;20.08;5.38;;;29.90;99.40;;;;;;4909992;29;20096;-85
2022/06/27 09:18:27;;;;;;;10.63;4.00;;;29.90;98.80;;;;;;4907771;29;20037;-83
2022/06/27 09:21:01;;;;;;;6.90;3.15;;;29.90;98.40;;;;;;4908698;29;20390;-83
2022/06/27 09:23:35;;;;;;;8.53;2.93;;;29.80;97.70;;;;;;4908387;29;20029;-83
2022/06/27 09:26:25;;;;;;;13.38;3.47;;;29.90;97.90;;;;;;4908227;29;20103;-82
2022/06/27 09:29:00;;;;;;;8.73;2.63;;;30.10;97.60;;;;;;4911582;29;20036;-83
2022/06/27 09:31:28;;;;;;;5.78;2.97;;;30.10;97.10;;;;;;4910995;29;20033;-82
2022/06/27 09:34:18;;;;;;;8.75;3.20;;;30.30;97.30;;;;;;4919171;29;20029;-81
2022/06/27 09:36:52;;;;;;;9.98;3.38;;;30.30;96.40;;;;;;4912184;29;20041;-82
2022/06/27 09:39:31;;;;;;;7.53;3.13;;;30.30;96.70;;;;;;4906789;29;20025;-83
2022/06/27 09:42:20;;;;;;;9.07;3.65;;;30.20;96.50;;;;;;4907325;29;20043;-84
2022/06/27 09:44:47;;;;;;;14.35;4.72;;;30.30;96.70;;;;;;4907869;29;20029;-83
2022/06/27 09:47:25;;;;;;;16.63;4.47;;;30.50;96.80;;;;;;4907015;29;20424;-85
2022/06/27 09:49:56;;;;;;;13.95;4.50;;;30.90;96.30;;;;;;4915676;29;20092;-84
2022/06/27 09:52:24;;;;;;;11.75;3.80;;;31.20;95.80;;;;;;4911503;29;20059;-82
2022/06/27 09:54:53;;;;;;;8.80;3.15;;;31.40;95.40;;;;;;4905624;29;20025;-82
2022/06/27 09:57:20;;;;;;;15.35;3.70;;;31.50;94.90;;;;;;4907823;29;20350;-84
2022/06/27 09:59:49;;;;;;;16.58;4.50;;;31.80;94.80;;;;;;4906266;29;20031;-85
2022/06/27 10:02:17;;;;;;;5.30;3.03;;;32.20;94.20;;;;;;4905440;29;20099;-82
2022/06/27 10:04:44;;;;;;;9.07;3.85;;;32.30;93.70;;;;;;4919181;29;20028;-83
2022/06/27 10:07:12;;;;;;;6.72;2.80;;;32.30;93.50;;;;;;4920768;29;20096;-83
2022/06/27 10:09:38;;;;;;;10.10;3.05;;;32.80;93.20;;;;;;4921214;29;20052;-81
2022/06/27 10:12:26;;;;;;;11.23;3.28;;;33.10;92.50;;;;;;4921907;29;20056;-81
2022/06/27 10:15:10;;;;;;;6.47;3.15;;;33.20;92.30;;;;;;4908950;29;20040;-82
2022/06/27 10:17:51;;;;;;;9.63;3.00;;;33.70;91.80;;;;;;4921899;29;20032;-81
2022/06/27 10:20:35;;;;;;;9.65;3.38;;;34.50;91.20;;;;;;4921596;29;20020;-81
2022/06/27 10:23:03;;;;;;;9.82;3.38;;;35.30;90.00;;;;;;4921612;29;20095;-82
2022/06/27 10:25:29;;;;;;;13.27;3.67;;;35.60;88.60;;;;;;4919444;29;20017;-82
2022/06/27 10:28:07;;;;;;;7.53;3.13;;;36.30;86.10;;;;;;4918647;29;20081;-81
2022/06/27 10:30:45;;;;;;;10.38;3.22;;;36.60;84.50;;;;;;4921437;29;20024;-82
2022/06/27 10:33:26;;;;;;;6.55;2.60;;;37.10;82.80;;;;;;4916898;29;20032;-83
2022/06/27 10:35:55;;;;;;;9.52;2.58;;;37.20;80.70;;;;;;4915125;29;20047;-83
2022/06/27 10:38:32;;;;;;;6.20;2.40;;;37.30;79.80;;;;;;4918247;29;20009;-82
2022/06/27 10:41:02;;;;;;;5.80;2.75;;;37.40;79.00;;;;;;4920861;29;20045;-82
2022/06/27 10:43:46;;;;;;;9.15;3.03;;;37.60;78.20;;;;;;4939581;29;20513;-81
2022/06/27 10:46:15;;;;;;;;;;;38.60;76.80;;;;;;4937350;29;20047;-82
2022/06/27 10:48:42;;;;;;;8.13;2.55;;;38.80;75.40;;;;;;4938060;29;19914;-84
2022/06/27 10:51:31;;;;;;;7.28;3.30;;;39.10;74.20;;;;;;4938650;29;20035;-83
2022/06/27 10:54:06;;;;;;;15.52;4.05;;;39.50;72.70;;;;;;4939039;29;20044;-83
2022/06/27 10:56:44;;;;;;;7.65;2.88;;;40.00;71.00;;;;;;4935042;29;20076;-81
2022/06/27 10:59:16;;;;;;;8.43;2.97;;;40.20;69.90;;;;;;4940656;29;20454;-85
2022/06/27 11:02:02;;;;;;;8.73;2.83;;;40.00;69.30;;;;;;4954329;29;20043;-82
2022/06/27 11:04:32;;;;;;;8.98;2.55;;;40.10;69.30;;;;;;4946298;29;20040;-82
2022/06/27 11:07:04;;;;;;;9.73;2.45;;;40.20;68.00;;;;;;4948814;29;20054;-84
2022/06/27 11:09:43;;;;;;;6.57;2.83;;;39.40;68.30;;;;;;4950217;29;20043;-83
2022/06/27 11:12:20;;;;;;;7.40;2.53;;;39.80;67.60;;;;;;4934233;29;20031;-87
2022/06/27 11:14:53;;;;;;;8.65;2.45;;;39.60;66.00;;;;;;4931928;29;20032;-84
2022/06/27 11:17:39;;;;;;;10.68;2.38;;;39.20;66.30;;;;;;4930907;29;20036;-83
2022/06/27 11:20:24;;;;;;;;;;;39.30;66.10;;;;;;4929873;29;20028;-83
2022/06/27 11:23:01;;;;;;;8.93;2.75;;;38.80;66.10;;;;;;4933599;29;19911;-83
2022/06/27 11:25:29;;;;;;;7.80;3.03;;;38.90;66.20;;;;;;4949120;29;20040;-82
2022/06/27 11:27:57;;;;;;;8.98;2.45;;;39.40;65.60;;;;;;4929334;29;20056;-84
2022/06/27 11:33:25;;;;;;;10.77;2.47;;;40.20;64.10;;;;;;4934246;29;20062;-83
2022/06/27 11:35:53;;;;;;;7.65;2.35;;;40.40;63.80;;;;;;4934472;29;20024;-82
2022/06/27 11:38:28;;;;;;;4.30;2.40;;;40.70;63.60;;;;;;4930147;29;20047;-83
2022/06/27 11:41:07;;;;;;;12.35;2.50;;;40.20;63.50;;;;;;4911672;29;20491;-81
2022/06/27 11:43:50;;;;;;;10.98;2.92;;;40.60;63.50;;;;;;4911038;29;20039;-83
2022/06/27 11:46:45;;;;;;;11.32;2.47;;;41.20;62.30;;;;;;4926923;29;20045;-83
2022/06/27 11:49:27;;;;;;;7.13;2.58;;;40.10;62.60;;;;;;4903063;29;20068;-82
2022/06/27 11:52:09;;;;;;;6.32;2.28;;;39.80;62.10;;;;;;4920871;29;20039;-82
2022/06/27 11:54:43;;;;;;;4.40;2.25;;;40.00;61.40;;;;;;4926931;29;20024;-83
2022/06/27 11:57:33;;;;;;;8.73;2.70;;;40.30;61.40;;;;;;4927016;29;20079;-85
2022/06/27 12:00:01;;;;;;;5.63;2.40;;;41.70;60.60;;;;;;4930788;29;20032;-83
2022/06/27 12:02:35;;;;;;;10.93;2.70;;;41.70;59.60;;;;;;4939124;29;20030;-81
2022/06/27 12:05:09;;;;;;;10.25;2.53;;;41.40;59.30;;;;;;4942232;29;20035;-82
2022/06/27 12:07:58;;;;;;;6.47;2.42;;;41.00;59.40;;;;;;4954884;23;20048;-87
2022/06/27 12:11:16;;;;;;;5.28;2.50;;;40.50;60.10;;;;;;4930800;29;20043;-87
2022/06/27 12:13:33;;;;;;;7.18;2.65;;;40.60;59.90;;;;;;4933301;29;20131;-89
2022/06/27 12:16:01;;;;;;;8.48;2.35;;;41.00;60.10;;;;;;4930947;29;20107;-86
2022/06/27 12:18:34;;;;;;;8.90;2.88;;;41.80;59.20;;;;;;4932885;29;20107;-87
2022/06/27 12:21:00;;;;;;;;;;;41.50;58.70;;;;;;4932884;29;20032;-85
2022/06/27 12:23:26;;;;;;;7.32;2.80;;;42.50;58.70;;;;;;4925537;29;19963;-87
2022/06/27 12:25:52;;;;;;;12.50;3.08;;;42.90;57.20;;;;;;4913252;29;20071;-86
2022/06/27 12:28:18;;;;;;;7.25;2.38;;;42.50;57.20;;;;;;4914097;29;20106;-89
2022/06/27 12:30:44;;;;;;;9.13;2.45;;;41.80;57.60;;;;;;4915161;29;20089;-88
2022/06/27 12:33:09;;;;;;;6.55;2.45;;;41.70;57.60;;;;;;4914968;29;20040;-87
2022/06/27 12:35:36;;;;;;;6.10;2.75;;;42.30;57.50;;;;;;4919452;29;20028;-87
2022/06/27 12:38:03;;;;;;;6.65;2.63;;;43.10;57.00;;;;;;4931780;29;20024;-87
2022/06/27 12:40:30;;;;;;;9.50;3.10;;;43.40;56.60;;;;;;4938558;29;20055;-86
2022/06/27 12:42:56;;;;;;;6.60;2.90;;;43.70;56.40;;;;;;4932953;29;20461;-84
2022/06/27 12:45:22;;;;;;;5.13;2.90;;;44.20;54.80;;;;;;4931617;29;20047;-87
2022/06/27 12:47:48;;;;;;;4.72;2.20;;;43.90;55.50;;;;;;4931472;29;20063;-86
2022/06/27 12:50:13;;;;;;;9.00;2.50;;;43.50;54.90;;;;;;4928139;29;20013;-88
2022/06/27 12:52:39;;;;;;;9.50;2.67;;;44.00;55.30;;;;;;4915311;29;20027;-85
2022/06/27 12:55:05;;;;;;;4.70;2.35;;;44.60;55.30;;;;;;4933197;29;20016;-88
2022/06/27 12:57:31;;;;;;;9.40;2.53;;;44.10;54.60;;;;;;4934118;29;20020;-87
2022/06/27 12:59:57;;;;;;;6.32;2.33;;;43.00;54.50;;;;;;4934236;29;20031;-87
2022/06/27 13:02:23;;;;;;;9.48;2.80;;;42.80;55.00;;;;;;4924761;29;20016;-85
2022/06/27 13:04:49;;;;;;;10.10;2.70;;;42.90;54.90;;;;;;4917432;29;20029;-89